sensor_id;sensor_type;location;lat;lon;timestamp;P1;durP1;ratioP1;P2;durP2;ratioP2
23868;SDS011;12115;47.128;15.422;2022-08-21T00:00:13;1.30;;;0.52;;
23868;SDS011;12115;47.128;15.422;2022-08-21T00:02:50;0.70;;;0.52;;
23868;SDS011;12115;47.128;15.422;2022-08-21T00:05:28;0.95;;;0.52;;
23868;SDS011;12115;47.128;15.422;2022-08-21T00:07:56;0.63;;;0.63;;
23868;SDS011;12115;47.128;15.422;2022-08-21T00:10:23;0.88;;;0.70;;
23868;SDS011;12115;47.128;15.422;2022-08-21T00:12:51;2.50;;;0.60;;
23868;SDS011;12115;47.128;15.422;2022-08-21T00:15:21;0.70;;;0.50;;
23868;SDS011;12115;47.128;15.422;2022-08-21T00:17:50;0.70;;;0.50;;
23868;SDS011;12115;47.128;15.422;2022-08-21T00:20:18;0.75;;;0.60;;
23868;SDS011;12115;47.128;15.422;2022-08-21T00:22:46;0.60;;;0.60;;
23868;SDS011;12115;47.128;15.422;2022-08-21T00:25:14;0.68;;;0.45;;
23868;SDS011;12115;47.128;15.422;2022-08-21T00:27:45;1.00;;;0.70;;
23868;SDS011;12115;47.128;15.422;2022-08-21T00:30:13;0.60;;;0.60;;
23868;SDS011;12115;47.128;15.422;2022-08-21T00:32:49;0.63;;;0.57;;
23868;SDS011;12115;47.128;15.422;2022-08-21T00:35:19;2.03;;;0.60;;
23868;SDS011;12115;47.128;15.422;2022-08-21T00:37:48;1.85;;;0.57;;
23868;SDS011;12115;47.128;15.422;2022-08-21T00:40:17;2.17;;;0.70;;
23868;SDS011;12115;47.128;15.422;2022-08-21T00:42:49;0.65;;;0.60;;
23868;SDS011;12115;47.128;15.422;2022-08-21T00:45:19;0.50;;;0.50;;
23868;SDS011;12115;47.128;15.422;2022-08-21T00:47:49;1.40;;;0.68;;
23868;SDS011;12115;47.128;15.422;2022-08-21T00:50:18;2.15;;;0.57;;
23868;SDS011;12115;47.128;15.422;2022-08-21T00:52:48;0.60;;;0.60;;
23868;SDS011;12115;47.128;15.422;2022-08-21T00:55:17;0.80;;;0.45;;
23868;SDS011;12115;47.128;15.422;2022-08-21T00:57:49;0.85;;;0.60;;
23868;SDS011;12115;47.128;15.422;2022-08-21T01:00:22;1.38;;;0.80;;
23868;SDS011;12115;47.128;15.422;2022-08-21T01:02:56;0.98;;;0.70;;
23868;SDS011;12115;47.128;15.422;2022-08-21T01:05:28;1.95;;;0.52;;
23868;SDS011;12115;47.128;15.422;2022-08-21T01:07:55;0.85;;;0.70;;
23868;SDS011;12115;47.128;15.422;2022-08-21T01:10:26;2.40;;;0.85;;
23868;SDS011;12115;47.128;15.422;2022-08-21T01:12:55;0.82;;;0.65;;
23868;SDS011;12115;47.128;15.422;2022-08-21T01:15:24;1.08;;;0.70;;
23868;SDS011;12115;47.128;15.422;2022-08-21T01:17:57;0.50;;;0.50;;
23868;SDS011;12115;47.128;15.422;2022-08-21T01:20:24;0.70;;;0.70;;
23868;SDS011;12115;47.128;15.422;2022-08-21T01:22:59;0.90;;;0.45;;
23868;SDS011;12115;47.128;15.422;2022-08-21T01:25:27;0.50;;;0.50;;
23868;SDS011;12115;47.128;15.422;2022-08-21T01:27:55;1.38;;;0.63;;
23868;SDS011;12115;47.128;15.422;2022-08-21T01:30:25;0.80;;;0.70;;
23868;SDS011;12115;47.128;15.422;2022-08-21T01:32:54;0.52;;;0.50;;
23868;SDS011;12115;47.128;15.422;2022-08-21T01:35:22;0.90;;;0.70;;
23868;SDS011;12115;47.128;15.422;2022-08-21T01:37:50;0.82;;;0.63;;
23868;SDS011;12115;47.128;15.422;2022-08-21T01:40:17;1.08;;;0.68;;
23868;SDS011;12115;47.128;15.422;2022-08-21T01:42:45;1.10;;;0.80;;
23868;SDS011;12115;47.128;15.422;2022-08-21T01:45:13;0.50;;;0.50;;
23868;SDS011;12115;47.128;15.422;2022-08-21T01:47:43;1.55;;;0.77;;
23868;SDS011;12115;47.128;15.422;2022-08-21T01:50:12;0.50;;;0.47;;
23868;SDS011;12115;47.128;15.422;2022-08-21T01:52:41;1.40;;;0.60;;
23868;SDS011;12115;47.128;15.422;2022-08-21T01:55:09;2.70;;;0.60;;
23868;SDS011;12115;47.128;15.422;2022-08-21T01:57:37;2.45;;;0.70;;
23868;SDS011;12115;47.128;15.422;2022-08-21T02:00:05;0.60;;;0.60;;
23868;SDS011;12115;47.128;15.422;2022-08-21T02:02:37;1.23;;;0.73;;
23868;SDS011;12115;47.128;15.422;2022-08-21T02:05:05;1.65;;;0.80;;
23868;SDS011;12115;47.128;15.422;2022-08-21T02:07:38;1.20;;;0.75;;
23868;SDS011;12115;47.128;15.422;2022-08-21T02:10:07;0.80;;;0.80;;
23868;SDS011;12115;47.128;15.422;2022-08-21T02:12:35;0.70;;;0.70;;
23868;SDS011;12115;47.128;15.422;2022-08-21T02:15:03;0.85;;;0.63;;
23868;SDS011;12115;47.128;15.422;2022-08-21T02:17:39;0.75;;;0.75;;
23868;SDS011;12115;47.128;15.422;2022-08-21T02:20:14;1.17;;;0.63;;
23868;SDS011;12115;47.128;15.422;2022-08-21T02:22:48;0.93;;;0.68;;
23868;SDS011;12115;47.128;15.422;2022-08-21T02:25:16;0.88;;;0.80;;
23868;SDS011;12115;47.128;15.422;2022-08-21T02:27:44;2.05;;;0.70;;
23868;SDS011;12115;47.128;15.422;2022-08-21T02:30:21;0.70;;;0.70;;
23868;SDS011;12115;47.128;15.422;2022-08-21T02:32:50;1.05;;;0.65;;
23868;SDS011;12115;47.128;15.422;2022-08-21T02:35:18;1.55;;;0.60;;
23868;SDS011;12115;47.128;15.422;2022-08-21T02:37:49;4.80;;;0.82;;
23868;SDS011;12115;47.128;15.422;2022-08-21T02:40:19;0.70;;;0.68;;
23868;SDS011;12115;47.128;15.422;2022-08-21T02:42:48;1.42;;;0.85;;
23868;SDS011;12115;47.128;15.422;2022-08-21T02:45:16;0.80;;;0.70;;
23868;SDS011;12115;47.128;15.422;2022-08-21T02:47:50;0.70;;;0.70;;
23868;SDS011;12115;47.128;15.422;2022-08-21T02:50:20;1.52;;;0.88;;
23868;SDS011;12115;47.128;15.422;2022-08-21T02:52:55;1.67;;;0.85;;
23868;SDS011;12115;47.128;15.422;2022-08-21T02:55:24;1.30;;;0.90;;
23868;SDS011;12115;47.128;15.422;2022-08-21T02:57:54;0.82;;;0.73;;
23868;SDS011;12115;47.128;15.422;2022-08-21T03:00:22;1.02;;;0.73;;
23868;SDS011;12115;47.128;15.422;2022-08-21T03:02:51;1.08;;;0.75;;
23868;SDS011;12115;47.128;15.422;2022-08-21T03:05:19;2.28;;;0.73;;
23868;SDS011;12115;47.128;15.422;2022-08-21T03:07:47;3.30;;;0.90;;
23868;SDS011;12115;47.128;15.422;2022-08-21T03:10:15;0.73;;;0.73;;
23868;SDS011;12115;47.128;15.422;2022-08-21T03:12:42;0.88;;;0.88;;
23868;SDS011;12115;47.128;15.422;2022-08-21T03:15:10;1.10;;;1.00;;
23868;SDS011;12115;47.128;15.422;2022-08-21T03:17:39;0.75;;;0.75;;
23868;SDS011;12115;47.128;15.422;2022-08-21T03:20:07;0.85;;;0.80;;
23868;SDS011;12115;47.128;15.422;2022-08-21T03:22:35;0.63;;;0.63;;
23868;SDS011;12115;47.128;15.422;2022-08-21T03:25:03;0.65;;;0.60;;
23868;SDS011;12115;47.128;15.422;2022-08-21T03:27:32;0.73;;;0.70;;
23868;SDS011;12115;47.128;15.422;2022-08-21T03:30:00;0.82;;;0.82;;
23868;SDS011;12115;47.128;15.422;2022-08-21T03:32:28;0.77;;;0.70;;
23868;SDS011;12115;47.128;15.422;2022-08-21T03:34:57;1.85;;;0.63;;
23868;SDS011;12115;47.128;15.422;2022-08-21T03:37:26;0.80;;;0.80;;
23868;SDS011;12115;47.128;15.422;2022-08-21T03:39:53;1.30;;;0.90;;
23868;SDS011;12115;47.128;15.422;2022-08-21T03:42:21;0.88;;;0.80;;
23868;SDS011;12115;47.128;15.422;2022-08-21T03:44:49;1.15;;;0.93;;
23868;SDS011;12115;47.128;15.422;2022-08-21T03:47:16;1.52;;;1.00;;
23868;SDS011;12115;47.128;15.422;2022-08-21T03:49:43;2.30;;;0.80;;
23868;SDS011;12115;47.128;15.422;2022-08-21T03:52:10;1.83;;;1.08;;
23868;SDS011;12115;47.128;15.422;2022-08-21T03:54:39;1.60;;;1.10;;
23868;SDS011;12115;47.128;15.422;2022-08-21T03:57:07;0.80;;;0.80;;
23868;SDS011;12115;47.128;15.422;2022-08-21T03:59:36;1.08;;;0.90;;
23868;SDS011;12115;47.128;15.422;2022-08-21T04:02:06;1.23;;;0.70;;
23868;SDS011;12115;47.128;15.422;2022-08-21T04:04:33;0.90;;;0.80;;
23868;SDS011;12115;47.128;15.422;2022-08-21T04:07:01;0.60;;;0.60;;
23868;SDS011;12115;47.128;15.422;2022-08-21T04:09:29;1.55;;;0.80;;
23868;SDS011;12115;47.128;15.422;2022-08-21T04:11:56;0.90;;;0.90;;
23868;SDS011;12115;47.128;15.422;2022-08-21T04:14:25;0.75;;;0.75;;
23868;SDS011;12115;47.128;15.422;2022-08-21T04:16:52;1.08;;;0.85;;
23868;SDS011;12115;47.128;15.422;2022-08-21T04:19:19;1.00;;;0.90;;
23868;SDS011;12115;47.128;15.422;2022-08-21T04:21:47;0.88;;;0.85;;
23868;SDS011;12115;47.128;15.422;2022-08-21T04:24:17;0.77;;;0.77;;
23868;SDS011;12115;47.128;15.422;2022-08-21T04:26:45;1.50;;;1.20;;
23868;SDS011;12115;47.128;15.422;2022-08-21T04:29:13;1.52;;;1.05;;
23868;SDS011;12115;47.128;15.422;2022-08-21T04:31:40;2.03;;;1.00;;
23868;SDS011;12115;47.128;15.422;2022-08-21T04:34:09;0.93;;;0.82;;
23868;SDS011;12115;47.128;15.422;2022-08-21T04:36:37;0.93;;;0.70;;
23868;SDS011;12115;47.128;15.422;2022-08-21T04:39:04;1.00;;;0.88;;
23868;SDS011;12115;47.128;15.422;2022-08-21T04:41:35;0.80;;;0.80;;
23868;SDS011;12115;47.128;15.422;2022-08-21T04:44:04;1.08;;;0.90;;
23868;SDS011;12115;47.128;15.422;2022-08-21T04:46:33;1.23;;;0.88;;
23868;SDS011;12115;47.128;15.422;2022-08-21T04:49:00;0.88;;;0.80;;
23868;SDS011;12115;47.128;15.422;2022-08-21T04:51:29;1.88;;;0.77;;
23868;SDS011;12115;47.128;15.422;2022-08-21T04:54:09;0.82;;;0.80;;
23868;SDS011;12115;47.128;15.422;2022-08-21T04:56:51;0.80;;;0.80;;
23868;SDS011;12115;47.128;15.422;2022-08-21T04:59:25;0.85;;;0.65;;
23868;SDS011;12115;47.128;15.422;2022-08-21T05:01:57;1.15;;;0.90;;
23868;SDS011;12115;47.128;15.422;2022-08-21T05:04:25;1.40;;;0.80;;
23868;SDS011;12115;47.128;15.422;2022-08-21T05:06:56;0.83;;;0.83;;
23868;SDS011;12115;47.128;15.422;2022-08-21T05:09:26;0.85;;;0.70;;
23868;SDS011;12115;47.128;15.422;2022-08-21T05:11:54;1.13;;;0.68;;
23868;SDS011;12115;47.128;15.422;2022-08-21T05:14:22;0.80;;;0.80;;
23868;SDS011;12115;47.128;15.422;2022-08-21T05:16:49;1.00;;;0.90;;
23868;SDS011;12115;47.128;15.422;2022-08-21T05:19:16;2.17;;;0.75;;
23868;SDS011;12115;47.128;15.422;2022-08-21T05:21:44;0.98;;;0.90;;
23868;SDS011;12115;47.128;15.422;2022-08-21T05:24:14;1.85;;;0.70;;
23868;SDS011;12115;47.128;15.422;2022-08-21T05:26:42;0.88;;;0.80;;
23868;SDS011;12115;47.128;15.422;2022-08-21T05:29:13;1.23;;;0.97;;
23868;SDS011;12115;47.128;15.422;2022-08-21T05:31:43;1.67;;;0.80;;
23868;SDS011;12115;47.128;15.422;2022-08-21T05:34:12;0.60;;;0.60;;
23868;SDS011;12115;47.128;15.422;2022-08-21T05:36:42;0.63;;;0.63;;
23868;SDS011;12115;47.128;15.422;2022-08-21T05:39:09;0.80;;;0.80;;
23868;SDS011;12115;47.128;15.422;2022-08-21T05:41:37;1.27;;;0.88;;
23868;SDS011;12115;47.128;15.422;2022-08-21T05:44:04;0.90;;;0.77;;
23868;SDS011;12115;47.128;15.422;2022-08-21T05:46:36;0.80;;;0.80;;
23868;SDS011;12115;47.128;15.422;2022-08-21T05:49:04;1.17;;;0.60;;
23868;SDS011;12115;47.128;15.422;2022-08-21T05:51:31;0.85;;;0.70;;
23868;SDS011;12115;47.128;15.422;2022-08-21T05:53:58;0.70;;;0.70;;
23868;SDS011;12115;47.128;15.422;2022-08-21T05:56:25;0.80;;;0.80;;
23868;SDS011;12115;47.128;15.422;2022-08-21T05:58:52;0.60;;;0.60;;
23868;SDS011;12115;47.128;15.422;2022-08-21T06:01:19;0.98;;;0.60;;
23868;SDS011;12115;47.128;15.422;2022-08-21T06:03:46;0.75;;;0.60;;
23868;SDS011;12115;47.128;15.422;2022-08-21T06:06:13;0.63;;;0.63;;
23868;SDS011;12115;47.128;15.422;2022-08-21T06:08:41;0.70;;;0.70;;
23868;SDS011;12115;47.128;15.422;2022-08-21T06:11:08;2.78;;;0.90;;
23868;SDS011;12115;47.128;15.422;2022-08-21T06:13:36;2.55;;;0.90;;
23868;SDS011;12115;47.128;15.422;2022-08-21T06:18:41;1.13;;;0.70;;
23868;SDS011;12115;47.128;15.422;2022-08-21T06:21:10;0.70;;;0.70;;
23868;SDS011;12115;47.128;15.422;2022-08-21T06:23:38;0.60;;;0.60;;
23868;SDS011;12115;47.128;15.422;2022-08-21T06:26:06;2.38;;;0.65;;
23868;SDS011;12115;47.128;15.422;2022-08-21T06:28:34;0.68;;;0.68;;
23868;SDS011;12115;47.128;15.422;2022-08-21T06:31:10;1.55;;;0.73;;
23868;SDS011;12115;47.128;15.422;2022-08-21T06:33:39;0.80;;;0.80;;
23868;SDS011;12115;47.128;15.422;2022-08-21T06:36:06;0.70;;;0.70;;
23868;SDS011;12115;47.128;15.422;2022-08-21T06:38:33;0.65;;;0.60;;
23868;SDS011;12115;47.128;15.422;2022-08-21T06:41:01;0.75;;;0.70;;
23868;SDS011;12115;47.128;15.422;2022-08-21T06:43:30;0.80;;;0.70;;
23868;SDS011;12115;47.128;15.422;2022-08-21T06:46:05;0.70;;;0.60;;
23868;SDS011;12115;47.128;15.422;2022-08-21T06:48:34;0.98;;;0.70;;
23868;SDS011;12115;47.128;15.422;2022-08-21T06:51:01;1.45;;;0.60;;
23868;SDS011;12115;47.128;15.422;2022-08-21T06:53:29;0.68;;;0.60;;
23868;SDS011;12115;47.128;15.422;2022-08-21T06:55:56;0.47;;;0.47;;
23868;SDS011;12115;47.128;15.422;2022-08-21T06:58:23;0.85;;;0.45;;
23868;SDS011;12115;47.128;15.422;2022-08-21T07:00:50;0.70;;;0.70;;
23868;SDS011;12115;47.128;15.422;2022-08-21T07:03:38;0.70;;;0.70;;
23868;SDS011;12115;47.128;15.422;2022-08-21T07:06:07;0.73;;;0.60;;
23868;SDS011;12115;47.128;15.422;2022-08-21T07:08:36;0.63;;;0.50;;
23868;SDS011;12115;47.128;15.422;2022-08-21T07:11:06;0.80;;;0.50;;
23868;SDS011;12115;47.128;15.422;2022-08-21T07:13:37;0.70;;;0.60;;
23868;SDS011;12115;47.128;15.422;2022-08-21T07:16:04;1.50;;;0.70;;
23868;SDS011;12115;47.128;15.422;2022-08-21T07:18:31;0.98;;;0.50;;
23868;SDS011;12115;47.128;15.422;2022-08-21T07:21:00;0.50;;;0.50;;
23868;SDS011;12115;47.128;15.422;2022-08-21T07:23:30;0.68;;;0.68;;
23868;SDS011;12115;47.128;15.422;2022-08-21T07:25:59;1.38;;;0.65;;
23868;SDS011;12115;47.128;15.422;2022-08-21T07:28:27;1.00;;;0.60;;
23868;SDS011;12115;47.128;15.422;2022-08-21T07:30:56;0.50;;;0.50;;
23868;SDS011;12115;47.128;15.422;2022-08-21T07:33:25;0.65;;;0.50;;
23868;SDS011;12115;47.128;15.422;2022-08-21T07:35:54;0.70;;;0.70;;
23868;SDS011;12115;47.128;15.422;2022-08-21T07:38:22;0.60;;;0.60;;
23868;SDS011;12115;47.128;15.422;2022-08-21T07:40:50;0.57;;;0.57;;
23868;SDS011;12115;47.128;15.422;2022-08-21T07:43:20;0.82;;;0.60;;
23868;SDS011;12115;47.128;15.422;2022-08-21T07:45:48;0.70;;;0.60;;
23868;SDS011;12115;47.128;15.422;2022-08-21T07:50:47;0.40;;;0.40;;
23868;SDS011;12115;47.128;15.422;2022-08-21T07:53:15;1.45;;;0.60;;
23868;SDS011;12115;47.128;15.422;2022-08-21T07:55:42;0.50;;;0.50;;
23868;SDS011;12115;47.128;15.422;2022-08-21T07:58:10;2.80;;;0.60;;
23868;SDS011;12115;47.128;15.422;2022-08-21T08:00:37;0.50;;;0.50;;
23868;SDS011;12115;47.128;15.422;2022-08-21T08:03:04;0.65;;;0.45;;
23868;SDS011;12115;47.128;15.422;2022-08-21T08:05:31;1.02;;;0.50;;
23868;SDS011;12115;47.128;15.422;2022-08-21T08:07:59;0.75;;;0.50;;
23868;SDS011;12115;47.128;15.422;2022-08-21T08:10:26;0.52;;;0.52;;
23868;SDS011;12115;47.128;15.422;2022-08-21T08:12:53;0.80;;;0.60;;
23868;SDS011;12115;47.128;15.422;2022-08-21T08:15:22;0.45;;;0.45;;
23868;SDS011;12115;47.128;15.422;2022-08-21T08:17:51;0.50;;;0.50;;
23868;SDS011;12115;47.128;15.422;2022-08-21T08:20:20;0.50;;;0.50;;
23868;SDS011;12115;47.128;15.422;2022-08-21T08:22:49;1.15;;;0.50;;
23868;SDS011;12115;47.128;15.422;2022-08-21T08:25:17;0.75;;;0.60;;
23868;SDS011;12115;47.128;15.422;2022-08-21T08:27:45;0.70;;;0.70;;
23868;SDS011;12115;47.128;15.422;2022-08-21T08:30:13;1.23;;;0.80;;
23868;SDS011;12115;47.128;15.422;2022-08-21T08:32:42;1.30;;;0.80;;
23868;SDS011;12115;47.128;15.422;2022-08-21T08:35:10;0.73;;;0.70;;
23868;SDS011;12115;47.128;15.422;2022-08-21T08:37:38;1.55;;;0.90;;
23868;SDS011;12115;47.128;15.422;2022-08-21T08:40:11;0.85;;;0.85;;
23868;SDS011;12115;47.128;15.422;2022-08-21T08:42:41;2.38;;;0.55;;
23868;SDS011;12115;47.128;15.422;2022-08-21T08:45:12;2.20;;;0.80;;
23868;SDS011;12115;47.128;15.422;2022-08-21T08:47:47;1.40;;;0.90;;
23868;SDS011;12115;47.128;15.422;2022-08-21T08:50:28;1.13;;;1.00;;
23868;SDS011;12115;47.128;15.422;2022-08-21T08:53:07;1.25;;;0.90;;
23868;SDS011;12115;47.128;15.422;2022-08-21T08:55:41;1.00;;;0.90;;
23868;SDS011;12115;47.128;15.422;2022-08-21T08:58:18;0.90;;;0.77;;
23868;SDS011;12115;47.128;15.422;2022-08-21T09:00:57;1.67;;;0.95;;
23868;SDS011;12115;47.128;15.422;2022-08-21T09:03:26;1.52;;;1.02;;
23868;SDS011;12115;47.128;15.422;2022-08-21T09:12:28;0.90;;;0.70;;
23868;SDS011;12115;47.128;15.422;2022-08-21T09:23:33;0.93;;;0.88;;
23868;SDS011;12115;47.128;15.422;2022-08-21T09:26:14;1.17;;;1.02;;
23868;SDS011;12115;47.128;15.422;2022-08-21T09:28:41;2.55;;;0.90;;
23868;SDS011;12115;47.128;15.422;2022-08-21T09:31:19;2.53;;;0.80;;
23868;SDS011;12115;47.128;15.422;2022-08-21T09:36:33;4.70;;;1.48;;
23868;SDS011;12115;47.128;15.422;2022-08-21T09:39:37;0.98;;;0.70;;
23868;SDS011;12115;47.128;15.422;2022-08-21T09:42:12;0.90;;;0.80;;
23868;SDS011;12115;47.128;15.422;2022-08-21T09:45:09;0.80;;;0.73;;
23868;SDS011;12115;47.128;15.422;2022-08-21T09:47:40;0.90;;;0.85;;
23868;SDS011;12115;47.128;15.422;2022-08-21T09:50:10;1.90;;;1.02;;
23868;SDS011;12115;47.128;15.422;2022-08-21T09:52:48;2.00;;;1.10;;
23868;SDS011;12115;47.128;15.422;2022-08-21T09:55:34;2.45;;;0.93;;
23868;SDS011;12115;47.128;15.422;2022-08-21T09:58:29;1.88;;;0.77;;
23868;SDS011;12115;47.128;15.422;2022-08-21T10:00:59;1.00;;;0.73;;
23868;SDS011;12115;47.128;15.422;2022-08-21T10:03:29;0.63;;;0.60;;
23868;SDS011;12115;47.128;15.422;2022-08-21T10:05:57;1.20;;;0.68;;
23868;SDS011;12115;47.128;15.422;2022-08-21T10:08:35;1.05;;;0.90;;
23868;SDS011;12115;47.128;15.422;2022-08-21T10:13:59;0.60;;;0.60;;
23868;SDS011;12115;47.128;15.422;2022-08-21T10:25:23;3.25;;;0.82;;
23868;SDS011;12115;47.128;15.422;2022-08-21T10:30:52;0.77;;;0.70;;
23868;SDS011;12115;47.128;15.422;2022-08-21T10:36:25;1.77;;;0.90;;
23868;SDS011;12115;47.128;15.422;2022-08-21T10:39:27;1.60;;;0.60;;
23868;SDS011;12115;47.128;15.422;2022-08-21T10:47:55;1.48;;;0.57;;
23868;SDS011;12115;47.128;15.422;2022-08-21T10:50:30;1.15;;;0.52;;
23868;SDS011;12115;47.128;15.422;2022-08-21T10:53:05;1.80;;;0.65;;
23868;SDS011;12115;47.128;15.422;2022-08-21T10:55:56;1.60;;;0.70;;
23868;SDS011;12115;47.128;15.422;2022-08-21T10:58:29;0.63;;;0.50;;
23868;SDS011;12115;47.128;15.422;2022-08-21T11:01:15;1.67;;;0.50;;
23868;SDS011;12115;47.128;15.422;2022-08-21T11:04:20;1.27;;;0.50;;
23868;SDS011;12115;47.128;15.422;2022-08-21T11:06:58;0.93;;;0.60;;
23868;SDS011;12115;47.128;15.422;2022-08-21T11:09:36;0.50;;;0.50;;
23868;SDS011;12115;47.128;15.422;2022-08-21T11:15:27;0.50;;;0.40;;
23868;SDS011;12115;47.128;15.422;2022-08-21T11:18:01;1.38;;;0.60;;
23868;SDS011;12115;47.128;15.422;2022-08-21T11:20:38;1.05;;;0.50;;
23868;SDS011;12115;47.128;15.422;2022-08-21T11:23:08;1.40;;;0.60;;
23868;SDS011;12115;47.128;15.422;2022-08-21T11:25:52;0.32;;;0.25;;
23868;SDS011;12115;47.128;15.422;2022-08-21T11:28:31;0.43;;;0.35;;
23868;SDS011;12115;47.128;15.422;2022-08-21T11:31:09;0.57;;;0.40;;
23868;SDS011;12115;47.128;15.422;2022-08-21T11:36:17;0.65;;;0.60;;
23868;SDS011;12115;47.128;15.422;2022-08-21T11:39:06;1.20;;;0.70;;
23868;SDS011;12115;47.128;15.422;2022-08-21T11:53:01;0.35;;;0.35;;
23868;SDS011;12115;47.128;15.422;2022-08-21T11:58:11;0.80;;;0.50;;
23868;SDS011;12115;47.128;15.422;2022-08-21T12:05:57;0.20;;;0.20;;
23868;SDS011;12115;47.128;15.422;2022-08-21T12:11:01;0.30;;;0.20;;
23868;SDS011;12115;47.128;15.422;2022-08-21T12:13:38;0.13;;;0.13;;
23868;SDS011;12115;47.128;15.422;2022-08-21T12:19:03;0.30;;;0.30;;
23868;SDS011;12115;47.128;15.422;2022-08-21T12:24:40;0.35;;;0.20;;
23868;SDS011;12115;47.128;15.422;2022-08-21T12:27:13;0.50;;;0.28;;
23868;SDS011;12115;47.128;15.422;2022-08-21T12:29:52;0.63;;;0.20;;
23868;SDS011;12115;47.128;15.422;2022-08-21T12:32:30;1.55;;;0.30;;
23868;SDS011;12115;47.128;15.422;2022-08-21T12:35:17;0.20;;;0.20;;
23868;SDS011;12115;47.128;15.422;2022-08-21T12:40:25;0.45;;;0.40;;
23868;SDS011;12115;47.128;15.422;2022-08-21T12:43:03;1.67;;;0.20;;
23868;SDS011;12115;47.128;15.422;2022-08-21T12:45:32;0.57;;;0.30;;
23868;SDS011;12115;47.128;15.422;2022-08-21T12:48:03;0.73;;;0.22;;
23868;SDS011;12115;47.128;15.422;2022-08-21T12:50:37;0.40;;;0.20;;
23868;SDS011;12115;47.128;15.422;2022-08-21T12:55:46;0.10;;;0.10;;
23868;SDS011;12115;47.128;15.422;2022-08-21T12:58:17;0.73;;;0.20;;
23868;SDS011;12115;47.128;15.422;2022-08-21T13:00:52;0.17;;;0.17;;
23868;SDS011;12115;47.128;15.422;2022-08-21T13:03:23;0.30;;;0.17;;
23868;SDS011;12115;47.128;15.422;2022-08-21T13:05:51;0.30;;;0.30;;
23868;SDS011;12115;47.128;15.422;2022-08-21T13:08:20;0.85;;;0.30;;
23868;SDS011;12115;47.128;15.422;2022-08-21T13:10:55;0.10;;;0.10;;
23868;SDS011;12115;47.128;15.422;2022-08-21T13:13:39;0.47;;;0.15;;
23868;SDS011;12115;47.128;15.422;2022-08-21T13:16:19;1.45;;;0.13;;
23868;SDS011;12115;47.128;15.422;2022-08-21T13:21:33;0.47;;;0.10;;
23868;SDS011;12115;47.128;15.422;2022-08-21T13:27:24;0.35;;;0.20;;
23868;SDS011;12115;47.128;15.422;2022-08-21T13:30:03;1.35;;;0.10;;
23868;SDS011;12115;47.128;15.422;2022-08-21T13:32:44;0.13;;;0.13;;
23868;SDS011;12115;47.128;15.422;2022-08-21T13:35:19;0.55;;;0.20;;
23868;SDS011;12115;47.128;15.422;2022-08-21T13:37:48;0.28;;;0.20;;
23868;SDS011;12115;47.128;15.422;2022-08-21T13:40:25;0.20;;;0.20;;
23868;SDS011;12115;47.128;15.422;2022-08-21T13:42:57;0.20;;;0.20;;
23868;SDS011;12115;47.128;15.422;2022-08-21T13:45:29;0.47;;;0.20;;
23868;SDS011;12115;47.128;15.422;2022-08-21T13:47:59;0.20;;;0.20;;
23868;SDS011;12115;47.128;15.422;2022-08-21T13:50:32;1.95;;;0.10;;
23868;SDS011;12115;47.128;15.422;2022-08-21T13:53:03;0.10;;;0.10;;
23868;SDS011;12115;47.128;15.422;2022-08-21T13:55:39;0.10;;;0.10;;
23868;SDS011;12115;47.128;15.422;2022-08-21T13:58:08;0.22;;;0.20;;
23868;SDS011;12115;47.128;15.422;2022-08-21T14:00:44;0.38;;;0.20;;
23868;SDS011;12115;47.128;15.422;2022-08-21T14:06:52;1.38;;;0.10;;
23868;SDS011;12115;47.128;15.422;2022-08-21T14:09:29;0.10;;;0.10;;
23868;SDS011;12115;47.128;15.422;2022-08-21T14:12:04;0.10;;;0.10;;
23868;SDS011;12115;47.128;15.422;2022-08-21T14:14:55;0.17;;;0.17;;
23868;SDS011;12115;47.128;15.422;2022-08-21T14:17:31;0.20;;;0.10;;
23868;SDS011;12115;47.128;15.422;2022-08-21T14:20:06;0.30;;;0.30;;
23868;SDS011;12115;47.128;15.422;2022-08-21T14:22:37;0.10;;;0.10;;
23868;SDS011;12115;47.128;15.422;2022-08-21T14:25:06;0.10;;;0.10;;
23868;SDS011;12115;47.128;15.422;2022-08-21T14:27:43;0.28;;;0.20;;
23868;SDS011;12115;47.128;15.422;2022-08-21T14:30:19;0.30;;;0.30;;
23868;SDS011;12115;47.128;15.422;2022-08-21T14:33:07;0.22;;;0.22;;
23868;SDS011;12115;47.128;15.422;2022-08-21T14:35:39;0.20;;;0.20;;
23868;SDS011;12115;47.128;15.422;2022-08-21T14:38:16;0.50;;;0.28;;
23868;SDS011;12115;47.128;15.422;2022-08-21T14:40:47;0.20;;;0.20;;
23868;SDS011;12115;47.128;15.422;2022-08-21T14:43:17;0.20;;;0.20;;
23868;SDS011;12115;47.128;15.422;2022-08-21T14:45:45;0.50;;;0.32;;
23868;SDS011;12115;47.128;15.422;2022-08-21T14:48:13;1.55;;;0.30;;
23868;SDS011;12115;47.128;15.422;2022-08-21T14:50:40;0.47;;;0.30;;
23868;SDS011;12115;47.128;15.422;2022-08-21T14:53:08;0.40;;;0.40;;
23868;SDS011;12115;47.128;15.422;2022-08-21T14:55:37;0.40;;;0.40;;
23868;SDS011;12115;47.128;15.422;2022-08-21T14:58:23;0.50;;;0.50;;
23868;SDS011;12115;47.128;15.422;2022-08-21T15:00:51;0.40;;;0.40;;
23868;SDS011;12115;47.128;15.422;2022-08-21T15:03:20;0.47;;;0.47;;
23868;SDS011;12115;47.128;15.422;2022-08-21T15:05:51;2.25;;;0.60;;
23868;SDS011;12115;47.128;15.422;2022-08-21T15:08:18;0.85;;;0.70;;
23868;SDS011;12115;47.128;15.422;2022-08-21T15:10:46;0.50;;;0.50;;
23868;SDS011;12115;47.128;15.422;2022-08-21T15:13:33;5.15;;;0.70;;
23868;SDS011;12115;47.128;15.422;2022-08-21T15:16:02;0.60;;;0.60;;
23868;SDS011;12115;47.128;15.422;2022-08-21T15:18:30;0.85;;;0.60;;
23868;SDS011;12115;47.128;15.422;2022-08-21T15:20:57;0.60;;;0.60;;
23868;SDS011;12115;47.128;15.422;2022-08-21T15:23:24;0.60;;;0.60;;
23868;SDS011;12115;47.128;15.422;2022-08-21T15:25:51;0.77;;;0.70;;
23868;SDS011;12115;47.128;15.422;2022-08-21T15:28:19;0.65;;;0.60;;
23868;SDS011;12115;47.128;15.422;2022-08-21T15:30:47;1.98;;;0.80;;
23868;SDS011;12115;47.128;15.422;2022-08-21T15:33:15;0.80;;;0.80;;
23868;SDS011;12115;47.128;15.422;2022-08-21T15:35:42;1.40;;;0.68;;
23868;SDS011;12115;47.128;15.422;2022-08-21T15:38:12;0.73;;;0.73;;
23868;SDS011;12115;47.128;15.422;2022-08-21T15:40:40;1.20;;;0.80;;
23868;SDS011;12115;47.128;15.422;2022-08-21T15:43:28;1.15;;;0.85;;
23868;SDS011;12115;47.128;15.422;2022-08-21T15:46:05;0.82;;;0.82;;
23868;SDS011;12115;47.128;15.422;2022-08-21T15:48:35;0.77;;;0.77;;
23868;SDS011;12115;47.128;15.422;2022-08-21T15:51:02;0.80;;;0.70;;
23868;SDS011;12115;47.128;15.422;2022-08-21T15:53:29;0.70;;;0.70;;
23868;SDS011;12115;47.128;15.422;2022-08-21T15:56:00;1.08;;;0.82;;
23868;SDS011;12115;47.128;15.422;2022-08-21T15:58:28;2.92;;;0.80;;
23868;SDS011;12115;47.128;15.422;2022-08-21T16:00:57;1.33;;;0.90;;
23868;SDS011;12115;47.128;15.422;2022-08-21T16:03:26;1.98;;;0.82;;
23868;SDS011;12115;47.128;15.422;2022-08-21T16:05:54;1.52;;;0.93;;
23868;SDS011;12115;47.128;15.422;2022-08-21T16:08:23;0.73;;;0.73;;
23868;SDS011;12115;47.128;15.422;2022-08-21T16:10:52;1.25;;;0.63;;
23868;SDS011;12115;47.128;15.422;2022-08-21T16:13:23;0.80;;;0.80;;
23868;SDS011;12115;47.128;15.422;2022-08-21T16:15:53;0.98;;;0.90;;
23868;SDS011;12115;47.128;15.422;2022-08-21T16:18:20;0.90;;;0.90;;
23868;SDS011;12115;47.128;15.422;2022-08-21T16:20:49;0.82;;;0.82;;
23868;SDS011;12115;47.128;15.422;2022-08-21T16:23:16;2.03;;;0.80;;
23868;SDS011;12115;47.128;15.422;2022-08-21T16:25:44;0.77;;;0.77;;
23868;SDS011;12115;47.128;15.422;2022-08-21T16:28:13;1.40;;;1.08;;
23868;SDS011;12115;47.128;15.422;2022-08-21T16:30:47;1.60;;;0.95;;